Clayhatchee, Alabama
Current Conditions -  °F | °C
As of 7:58 PM on Friday 28 Nov 2014 (Local Time) from KOZR Reporting Station
Clear Clear  
Wind Chill: 41°   Ceiling: Unl
Heat Index: 41°   Visibility: 10mi
Dew Point: 32°   Wind: 0mph
Humidity: 69%   Direction: NA
Pressure: 30.31"   Gusts: NA
Location:  31.2347°N, 85.7586°W
Report Text: KOZR 290158Z AUTO 00000KT 10SM CLR 05/00 A3031 RMK AO2 SLP268 T00520000 RVRNO
Loading
Personal Weather Stations






























Interactive Weather Map New forecast layout! Learn more

10-Day Weather Forecast

Advertisements
Track Severe Weather on mobile